Time;durP1;ratioP1;P1;durP2;ratioP2;P2;SDS_P1;SDS_P2;PMS_P1;PMS_P2;Temp;Humidity;BMP_temperature;BMP_pressure;BME280_temperature;BME280_humidity;BME280_pressure;Samples;Min_cycle;Max_cycle;Signal;HPM_P1;HPM_P2
2022/07/03 00:01:18;;;;;;;;;0.00;0.00;;;;;19.31;46.83;101079.53;5094075;27;45681;-82
2022/07/03 00:03:43;;;;;;;;;0.00;0.00;;;;;19.24;46.78;101079.00;5098124;27;46380;-81
2022/07/03 00:06:09;;;;;;;;;0.00;0.00;;;;;19.22;47.22;101078.22;5091680;27;45337;-82
2022/07/03 00:08:34;;;;;;;;;0.50;0.00;;;;;19.18;47.22;101077.47;5093052;27;45267;-82
2022/07/03 00:11:00;;;;;;;;;0.00;0.00;;;;;18.93;47.13;101056.38;5098755;27;45446;-82
2022/07/03 00:13:25;;;;;;;;;0.00;0.00;;;;;19.08;47.02;101075.31;5092701;27;48357;-81
2022/07/03 00:15:51;;;;;;;;;0.75;0.75;;;;;18.94;47.21;101065.25;5096126;27;45468;-81
2022/07/03 00:18:16;;;;;;;;;0.00;0.00;;;;;18.99;46.97;101074.81;5095544;27;45740;-82
2022/07/03 00:20:49;;;;;;;;;0.25;0.25;;;;;18.95;47.44;101062.50;5096198;27;45385;-82
2022/07/03 00:23:21;;;;;;;;;0.00;0.00;;;;;19.06;47.24;101077.19;5092084;27;48003;-81
2022/07/03 00:25:49;;;;;;;;;1.00;1.00;;;;;18.96;47.37;101064.25;5094634;27;45433;-82
2022/07/03 00:28:14;;;;;;;;;2.00;0.25;;;;;19.01;47.35;101074.75;5094614;27;45776;-81
2022/07/03 00:30:42;;;;;;;;;2.50;1.50;;;;;19.00;47.61;101075.66;5094565;27;45343;-82
2022/07/03 00:33:07;;;;;;;;;1.00;1.00;;;;;18.93;47.79;101079.56;5094232;27;45363;-82
2022/07/03 00:35:35;;;;;;;;;0.75;0.75;;;;;18.88;47.28;101063.72;5097032;27;45370;-82
2022/07/03 00:38:02;;;;;;;;;1.00;0.00;;;;;18.84;47.50;101056.72;5099097;27;45363;-83
2022/07/03 00:40:28;;;;;;;;;0.00;0.00;;;;;18.86;47.86;101062.06;5097257;27;45332;-82
2022/07/03 00:42:54;;;;;;;;;0.00;0.00;;;;;18.88;47.14;101068.22;5097089;27;45442;-82
2022/07/03 00:45:20;;;;;;;;;0.00;0.00;;;;;18.82;47.29;101056.81;5096186;27;45373;-82
2022/07/03 00:47:46;;;;;;;;;1.00;0.00;;;;;18.77;47.15;101071.38;5093292;27;45314;-83
2022/07/03 00:50:12;;;;;;;;;0.00;0.00;;;;;18.75;46.96;101078.59;5096447;27;45676;-82
2022/07/03 00:52:39;;;;;;;;;0.00;0.00;;;;;18.72;46.42;101081.41;5093899;27;45529;-82
2022/07/03 00:55:08;;;;;;;;;0.75;0.00;;;;;18.68;46.86;101082.50;5097984;27;45510;-82
2022/07/03 00:57:41;;;;;;;;;1.00;1.00;;;;;18.60;46.71;101078.38;5104139;27;45413;-82
2022/07/03 01:00:07;;;;;;;;;0.00;0.00;;;;;18.64;46.90;101081.75;5104948;27;45525;-81
2022/07/03 01:03:04;;;;;;;;;0.00;0.00;;;;;18.62;46.97;101081.84;5104948;27;45452;-82
2022/07/03 01:05:44;;;;;;;;;0.00;0.00;;;;;18.58;47.13;101080.22;5094404;27;45396;-83
2022/07/03 01:08:22;;;;;;;;;0.00;0.00;;;;;18.55;47.07;101074.16;5096990;27;45418;-83
2022/07/03 01:11:06;;;;;;;;;0.00;0.00;;;;;18.52;47.26;101085.84;5096864;27;45444;-81
2022/07/03 01:13:49;;;;;;;;;0.00;0.00;;;;;18.49;46.87;101080.66;5095767;27;46422;-82
2022/07/03 01:16:22;;;;;;;;;0.00;0.00;;;;;18.42;47.13;101079.22;5080633;27;45466;-81
2022/07/03 01:18:54;;;;;;;;;0.00;0.00;;;;;18.35;46.30;101073.25;5095072;27;45453;-82
2022/07/03 01:21:33;;;;;;;;;0.00;0.00;;;;;18.32;46.31;101073.38;5094346;27;45401;-82
2022/07/03 01:24:38;;;;;;;;;0.00;0.00;;;;;18.34;46.17;101087.56;5093988;27;46395;-83
2022/07/03 01:27:10;;;;;;;;;0.00;0.00;;;;;18.33;46.10;101084.97;5090553;27;45338;-82
2022/07/03 01:29:51;;;;;;;;;2.00;0.00;;;;;18.26;46.34;101085.22;5092694;27;45378;-80
2022/07/03 01:32:18;;;;;;;;;1.25;0.50;;;;;18.08;46.23;101053.94;5097374;27;45466;-82
2022/07/03 01:34:51;;;;;;;;;0.00;0.00;;;;;18.01;45.86;101049.81;5097105;27;45702;-81
2022/07/03 01:37:21;;;;;;;;;0.00;0.00;;;;;18.13;45.98;101076.00;5092297;27;45540;-82
2022/07/03 01:39:51;;;;;;;;;0.00;0.00;;;;;18.04;46.13;101055.03;5082481;28;45424;-81
2022/07/03 01:42:18;;;;;;;;;0.00;0.00;;;;;18.19;45.91;101086.44;5077218;27;45376;-81
2022/07/03 01:44:47;;;;;;;;;0.00;0.00;;;;;18.15;46.37;101086.66;5077517;27;45594;-81
2022/07/03 01:47:15;;;;;;;;;0.00;0.00;;;;;18.00;46.14;101072.97;5090948;27;45418;-82
2022/07/03 01:49:41;;;;;;;;;0.00;0.00;;;;;17.98;46.13;101068.66;5096334;27;45507;-80
2022/07/03 01:52:10;;;;;;;;;0.00;0.00;;;;;18.05;46.05;101091.50;5097348;27;45449;-82
2022/07/03 01:54:38;;;;;;;;;0.00;0.00;;;;;17.89;46.55;101065.44;5094936;27;46337;-82
2022/07/03 01:57:05;;;;;;;;;0.00;0.00;;;;;18.01;46.65;101087.25;5095823;27;45507;-81
2022/07/03 01:59:31;;;;;;;;;0.00;0.00;;;;;17.86;46.49;101062.84;5096656;27;45484;-82
2022/07/03 02:02:22;;;;;;;;;0.00;0.00;;;;;17.98;46.66;101074.88;5096889;27;45507;-81
2022/07/03 02:05:07;;;;;;;;;0.00;0.00;;;;;17.98;46.68;101077.53;5096385;27;45633;-82
2022/07/03 02:07:39;;;;;;;;;0.75;0.00;;;;;17.99;46.60;101081.06;5097778;27;45414;-82
2022/07/03 02:10:09;;;;;;;;;0.00;0.00;;;;;17.70;46.73;101032.34;5099953;27;45347;-82
2022/07/03 02:12:50;;;;;;;;;0.00;0.00;;;;;18.00;47.31;101074.81;5084426;27;45598;-81
2022/07/03 02:15:29;;;;;;;;;0.00;0.00;;;;;17.93;47.09;101083.09;5080135;27;46368;-81
2022/07/03 02:17:56;;;;;;;;;0.25;0.00;;;;;17.85;47.13;101065.59;5096893;27;45490;-81
2022/07/03 02:20:22;;;;;;;;;0.00;0.00;;;;;17.89;47.41;101076.13;5096243;27;45505;-81
2022/07/03 02:23:02;;;;;;;;;0.00;0.00;;;;;17.85;47.90;101082.50;5100131;27;45509;-82
2022/07/03 02:25:41;;;;;;;;;0.00;0.00;;;;;17.80;47.41;101063.13;5104644;27;45470;-81
2022/07/03 02:28:24;;;;;;;;;0.00;0.00;;;;;17.84;47.78;101067.41;5101010;27;45461;-82
2022/07/03 02:31:01;;;;;;;;;0.00;0.00;;;;;17.68;47.47;101034.25;5095852;27;45516;-84
2022/07/03 02:33:31;;;;;;;;;0.00;0.00;;;;;17.80;47.29;101062.25;5095054;27;45525;-80
2022/07/03 02:35:57;;;;;;;;;0.00;0.00;;;;;17.69;47.78;101046.69;5097151;27;45534;-83
2022/07/03 02:38:24;;;;;;;;;0.00;0.00;;;;;17.77;47.66;101068.59;5093602;27;45536;-83
2022/07/03 02:41:08;;;;;;;;;0.00;0.00;;;;;17.85;47.65;101085.16;5080013;27;45505;-82
2022/07/03 02:43:39;;;;;;;;;0.00;0.00;;;;;17.84;47.82;101086.13;5078120;27;45350;-81
2022/07/03 02:49:15;;;;;;;;;1.00;0.00;;;;;17.80;48.16;101089.00;5095715;27;45420;-81
2022/07/03 02:51:46;;;;;;;;;1.25;1.00;;;;;17.57;48.46;101067.63;5100951;27;45467;-83
2022/07/03 02:54:14;;;;;;;;;0.00;0.00;;;;;17.59;49.16;101086.28;5104284;27;45361;-82
2022/07/03 02:57:05;;;;;;;;;0.00;0.00;;;;;17.56;49.67;101092.59;5107180;27;45414;-80
2022/07/03 02:59:57;;;;;;;;;0.25;0.25;;;;;17.50;50.32;101098.19;5097317;27;45553;-80
2022/07/03 03:02:43;;;;;;;;;0.00;0.00;;;;;17.43;50.30;101093.16;5086537;27;45488;-82
2022/07/03 03:05:21;;;;;;;;;0.00;0.00;;;;;17.49;50.33;101108.94;5075966;27;45414;-80
2022/07/03 03:08:24;;;;;;;;;0.00;0.00;;;;;17.50;50.41;101110.69;5096007;27;45491;-81
2022/07/03 03:10:50;;;;;;;;;0.00;0.00;;;;;17.38;50.90;101090.69;5098108;27;45453;-81
2022/07/03 03:13:19;;;;;;;;;0.00;0.00;;;;;17.48;50.80;101102.75;5096830;27;45292;-82
2022/07/03 03:15:54;;;;;;;;;0.00;0.00;;;;;17.44;51.04;101105.59;5091692;27;45501;-81
2022/07/03 03:18:22;;;;;;;;;0.00;0.00;;;;;17.46;51.21;101109.97;5094905;27;45423;-81
2022/07/03 03:20:52;;;;;;;;;0.00;0.00;;;;;17.44;51.29;101106.47;5096818;27;45594;-82
2022/07/03 03:23:38;;;;;;;;;0.00;0.00;;;;;17.35;51.67;101112.19;5086872;27;45198;-81
2022/07/03 03:26:03;;;;;;;;;0.00;0.00;;;;;17.34;51.74;101105.09;5083625;27;45310;-81
2022/07/03 03:28:29;;;;;;;;;1.00;1.00;;;;;17.33;51.62;101103.38;5094829;27;45513;-78
2022/07/03 03:30:55;;;;;;;;;1.75;1.00;;;;;17.26;52.00;101093.84;5094834;27;45476;-78
2022/07/03 03:33:21;;;;;;;;;0.00;0.00;;;;;17.27;52.01;101099.13;5093371;27;45540;-78
2022/07/03 03:35:47;;;;;;;;;0.00;0.00;;;;;17.22;52.20;101091.31;5078798;27;45517;-78
2022/07/03 03:38:12;;;;;;;;;0.00;0.00;;;;;17.25;52.21;101105.44;5093957;27;46527;-78
2022/07/03 03:40:38;;;;;;;;;1.00;0.00;;;;;17.22;52.38;101101.13;5095894;27;45513;-78
2022/07/03 03:43:04;;;;;;;;;0.50;0.00;;;;;17.01;52.14;101074.31;5094066;27;45406;-79
2022/07/03 03:45:29;;;;;;;;;0.00;0.00;;;;;17.16;52.45;101098.69;5093645;27;45657;-79
2022/07/03 03:47:54;;;;;;;;;0.00;0.00;;;;;17.07;52.44;101086.56;5074010;27;45357;-79
2022/07/03 03:50:20;;;;;;;;;0.00;0.00;;;;;17.17;52.34;101109.31;5071719;27;45362;-78
2022/07/03 03:52:46;;;;;;;;;0.00;0.00;;;;;17.15;52.18;101108.47;5074097;27;45431;-79
2022/07/03 03:55:11;;;;;;;;;0.25;0.00;;;;;16.98;52.62;101084.25;5090422;27;45642;-78
2022/07/03 03:57:37;;;;;;;;;0.00;0.00;;;;;17.00;52.52;101090.41;5094311;27;45398;-78
2022/07/03 04:00:07;;;;;;;;;0.00;0.00;;;;;17.10;52.49;101107.81;5093898;27;45426;-79
2022/07/03 04:02:32;;;;;;;;;0.00;0.00;;;;;17.06;52.45;101095.50;5094866;27;45434;-79
2022/07/03 04:04:57;;;;;;;;;0.00;0.00;;;;;16.99;52.72;101089.53;5092754;27;45434;-78
2022/07/03 04:07:23;;;;;;;;;0.75;0.75;;;;;17.05;53.07;101109.81;5093349;27;46419;-78
2022/07/03 04:09:48;;;;;;;;;0.00;0.00;;;;;16.85;53.19;101086.47;5095144;27;45489;-79
2022/07/03 04:12:14;;;;;;;;;0.50;0.00;;;;;17.10;52.95;101126.50;5094777;27;45764;-78
2022/07/03 04:14:39;;;;;;;;;0.00;0.00;;;;;17.01;53.18;101106.34;5093264;27;45462;-81
2022/07/03 04:17:04;;;;;;;;;0.00;0.00;;;;;17.09;52.83;101100.72;5093295;27;47481;-81
2022/07/03 04:19:30;;;;;;;;;1.00;1.00;;;;;17.18;52.78;101115.53;5093442;27;45336;-78
2022/07/03 04:21:56;;;;;;;;;0.00;0.00;;;;;17.34;52.58;101115.78;5092701;27;45624;-79
2022/07/03 04:24:21;;;;;;;;;0.75;0.75;;;;;17.81;51.53;101130.81;5093306;27;45522;-78
2022/07/03 04:26:47;;;;;;;;;0.00;0.00;;;;;18.27;50.42;101116.38;5093806;27;46356;-79
2022/07/03 04:29:13;;;;;;;;;1.00;1.00;;;;;18.78;49.05;101118.59;5093517;27;45372;-78
2022/07/03 04:31:38;;;;;;;;;0.00;0.00;;;;;19.12;48.25;101101.00;5094925;27;45391;-79
2022/07/03 04:34:03;;;;;;;;;0.00;0.00;;;;;19.65;46.64;101120.81;5094838;27;45502;-77
2022/07/03 04:36:29;;;;;;;;;0.00;0.00;;;;;20.03;45.30;101124.25;5084144;27;45505;-79
2022/07/03 04:38:54;;;;;;;;;2.00;0.00;;;;;20.48;44.52;101129.13;5074883;27;45265;-79
2022/07/03 04:41:20;;;;;;;;;0.50;0.50;;;;;20.71;43.70;101128.81;5074854;27;45410;-79
2022/07/03 04:43:45;;;;;;;;;0.00;0.00;;;;;21.03;43.27;101134.25;5075926;27;45510;-78
2022/07/03 04:46:11;;;;;;;;;0.00;0.00;;;;;21.37;42.53;101105.47;5094695;27;46364;-79
2022/07/03 04:48:37;;;;;;;;;0.25;0.25;;;;;21.83;41.83;101121.69;5100684;27;45508;-78
2022/07/03 04:51:03;;;;;;;;;1.25;1.25;;;;;22.35;40.72;101141.09;5107551;27;45402;-80
2022/07/03 04:53:28;;;;;;;;;0.00;0.00;;;;;22.67;40.44;101125.63;5101279;27;45316;-78
2022/07/03 04:55:53;;;;;;;;;0.00;0.00;;;;;22.96;39.92;101122.94;5099677;27;46891;-79
2022/07/03 04:58:19;;;;;;;;;0.75;0.00;;;;;23.30;39.42;101122.63;5078811;27;49971;-77
2022/07/03 05:00:45;;;;;;;;;0.00;0.00;;;;;23.65;38.89;101123.00;5080686;27;45627;-79
2022/07/03 05:03:11;;;;;;;;;0.00;0.00;;;;;23.74;38.61;101121.53;5094196;27;45438;-79
2022/07/03 05:05:36;;;;;;;;;0.25;0.25;;;;;24.14;38.15;101124.25;5093904;27;46435;-78
2022/07/03 05:08:02;;;;;;;;;0.00;0.00;;;;;24.50;37.99;101121.81;5097368;27;45401;-77
2022/07/03 05:10:27;;;;;;;;;1.00;0.00;;;;;25.07;37.33;101123.19;5097535;27;45357;-77
2022/07/03 05:12:53;;;;;;;;;0.00;0.00;;;;;25.59;36.60;101127.50;5097463;27;45369;-76
2022/07/03 05:15:19;;;;;;;;;0.75;0.00;;;;;26.14;35.66;101132.44;5096127;27;46519;-77
2022/07/03 05:17:44;;;;;;;;;0.00;0.00;;;;;26.49;35.02;101113.41;5096848;27;45528;-78
2022/07/03 05:20:27;;;;;;;;;0.00;0.00;;;;;27.01;34.15;101122.00;5096758;27;45946;-77
2022/07/03 05:22:57;;;;;;;;;0.00;0.00;;;;;27.37;33.60;101119.97;5095784;27;45388;-77
2022/07/03 05:25:23;;;;;;;;;0.75;0.75;;;;;27.65;33.65;101113.13;5075641;27;47221;-77
2022/07/03 05:27:52;;;;;;;;;0.00;0.00;;;;;27.84;32.64;101106.97;5076326;27;45472;-77
2022/07/03 05:30:19;;;;;;;;;0.00;0.00;;;;;28.25;32.83;101117.19;5087408;27;45326;-78
2022/07/03 05:32:44;;;;;;;;;0.00;0.00;;;;;28.50;31.64;101096.88;5096870;27;45493;-77
2022/07/03 05:35:10;;;;;;;;;0.00;0.00;;;;;28.92;31.40;101115.84;5095952;27;45397;-79
2022/07/03 05:37:35;;;;;;;;;0.75;0.00;;;;;28.69;31.53;101107.03;5091253;27;45655;-80
2022/07/03 05:40:01;;;;;;;;;1.00;0.00;;;;;28.96;31.84;101121.88;5094750;27;45541;-78
2022/07/03 05:42:26;;;;;;;;;0.00;0.00;;;;;29.36;31.22;101119.13;5086554;27;45509;-80
2022/07/03 05:44:51;;;;;;;;;0.00;0.00;;;;;29.83;30.53;101107.63;5087742;27;46594;-80
2022/07/03 05:47:17;;;;;;;;;0.00;0.00;;;;;30.32;29.80;101115.72;5089638;27;45520;-80
2022/07/03 05:49:43;;;;;;;;;1.00;0.00;;;;;30.52;29.68;101123.88;5096871;27;45594;-80
2022/07/03 05:52:08;;;;;;;;;0.50;0.00;;;;;30.66;29.05;101109.78;5095118;27;45494;-78
2022/07/03 05:54:34;;;;;;;;;0.50;0.50;;;;;30.71;28.98;101112.06;5097935;27;46363;-80
2022/07/03 05:56:59;;;;;;;;;1.00;0.00;;;;;30.73;28.68;101110.03;5092342;27;45485;-81
2022/07/03 05:59:25;;;;;;;;;0.00;0.00;;;;;30.62;29.13;101125.56;5087069;27;45607;-78
2022/07/03 06:01:50;;;;;;;;;1.00;0.00;;;;;30.76;29.21;101120.66;5090165;27;45569;-79
2022/07/03 06:04:16;;;;;;;;;0.00;0.00;;;;;30.79;29.00;101104.88;5096231;27;45434;-80
2022/07/03 06:06:41;;;;;;;;;0.00;0.00;;;;;30.68;28.90;101135.03;5081035;27;45467;-81
2022/07/03 06:09:06;;;;;;;;;1.00;0.00;;;;;30.35;29.79;101111.84;5076988;27;45429;-78
2022/07/03 06:11:34;;;;;;;;;1.25;0.25;;;;;30.63;29.50;101131.91;5088021;27;45423;-80
2022/07/03 06:13:59;;;;;;;;;0.00;0.00;;;;;30.79;29.49;101102.13;5095323;27;46393;-80
2022/07/03 06:16:24;;;;;;;;;0.00;0.00;;;;;31.16;28.93;101100.41;5082825;27;45373;-80
2022/07/03 06:18:50;;;;;;;;;0.00;0.00;;;;;31.38;28.45;101049.09;5095322;27;45517;-79
2022/07/03 06:21:15;;;;;;;;;0.00;0.00;;;;;31.74;27.86;101073.72;5084657;27;45529;-80
2022/07/03 06:23:41;;;;;;;;;0.00;0.00;;;;;31.95;27.48;101103.44;5094571;27;45602;-79
2022/07/03 06:26:06;;;;;;;;;0.00;0.00;;;;;32.31;27.39;101139.81;5094511;27;45478;-80
2022/07/03 06:28:31;;;;;;;;;0.25;0.00;;;;;32.38;27.11;101150.94;5096066;27;45582;-79
2022/07/03 06:30:57;;;;;;;;;0.00;0.00;;;;;32.47;27.00;101132.72;5095903;27;45416;-78
2022/07/03 06:33:22;;;;;;;;;0.00;0.00;;;;;32.18;27.64;101128.41;5091096;27;47627;-79
2022/07/03 06:35:48;;;;;;;;;1.00;0.00;;;;;32.67;27.03;101144.31;5074746;27;45413;-79
2022/07/03 06:38:13;;;;;;;;;0.00;0.00;;;;;32.85;26.58;101141.53;5075645;27;45543;-78
2022/07/03 06:40:38;;;;;;;;;0.00;0.00;;;;;32.80;26.26;101131.06;5074774;27;45446;-78
2022/07/03 06:43:04;;;;;;;;;0.00;0.00;;;;;32.89;26.63;101131.97;5075289;28;51697;-77
2022/07/03 06:45:29;;;;;;;;;0.00;0.00;;;;;33.25;26.10;101142.72;5076323;27;45481;-77
2022/07/03 06:47:54;;;;;;;;;0.00;0.00;;;;;33.47;25.55;101142.13;5098514;27;45390;-79
2022/07/03 06:50:20;;;;;;;;;0.00;0.00;;;;;33.75;25.94;101139.09;5103309;27;45300;-79
2022/07/03 06:52:45;;;;;;;;;0.00;0.00;;;;;33.79;25.56;101137.75;5097992;27;46489;-78
2022/07/03 06:55:10;;;;;;;;;1.50;0.50;;;;;34.17;25.80;101138.09;5095139;27;45352;-78
2022/07/03 06:57:36;;;;;;;;;0.50;0.50;;;;;33.55;25.99;101143.16;5095492;27;45787;-78
2022/07/03 07:00:01;;;;;;;;;3.00;1.75;;;;;33.20;26.49;101142.38;5095209;27;45328;-78
2022/07/03 07:02:26;;;;;;;;;1.50;1.50;;;;;33.37;26.39;101146.03;5095551;27;46079;-78
2022/07/03 07:04:52;;;;;;;;;1.50;1.25;;;;;34.00;25.67;101141.88;5094996;27;45393;-79
2022/07/03 07:07:17;;;;;;;;;0.00;0.00;;;;;34.47;25.87;101143.09;5095004;27;45288;-78
2022/07/03 07:09:43;;;;;;;;;0.00;0.00;;;;;34.95;24.99;101140.38;5095957;27;45466;-80
2022/07/03 07:12:09;;;;;;;;;1.25;1.25;;;;;35.22;24.88;101152.81;5095590;27;45756;-79
2022/07/03 07:14:34;;;;;;;;;0.25;0.25;;;;;35.45;24.56;101141.88;5095733;27;45330;-78
2022/07/03 07:16:59;;;;;;;;;0.75;0.00;;;;;35.51;24.04;101110.94;5095846;27;45372;-78
2022/07/03 07:19:24;;;;;;;;;0.25;0.25;;;;;35.71;23.31;101140.69;5093274;27;45473;-79
2022/07/03 07:21:50;;;;;;;;;0.25;0.25;;;;;35.79;23.70;101148.91;5094728;27;45503;-78
2022/07/03 07:24:15;;;;;;;;;1.00;1.00;;;;;35.77;23.74;101150.97;5094309;27;45519;-78
2022/07/03 07:26:41;;;;;;;;;1.00;1.00;;;;;36.00;23.20;101161.13;5094857;27;45362;-79
2022/07/03 07:29:07;;;;;;;;;0.00;0.00;;;;;36.31;22.72;101162.97;5094336;27;45441;-79
2022/07/03 07:31:32;;;;;;;;;1.00;1.00;;;;;36.50;22.08;101154.16;5094656;27;46328;-79
2022/07/03 07:33:58;;;;;;;;;1.75;1.00;;;;;36.61;22.46;101159.19;5094553;27;45533;-80
2022/07/03 07:36:23;;;;;;;;;2.00;0.00;;;;;36.50;22.57;101156.06;5095075;27;45398;-78
2022/07/03 07:38:48;;;;;;;;;0.00;0.00;;;;;36.60;23.43;101157.47;5094115;27;52854;-79
2022/07/03 07:41:14;;;;;;;;;0.00;0.00;;;;;36.61;22.34;101153.69;5094308;27;45531;-78
2022/07/03 07:43:39;;;;;;;;;1.00;1.00;;;;;35.77;22.67;101145.47;5094322;27;45491;-78
2022/07/03 07:46:04;;;;;;;;;2.00;1.00;;;;;35.72;23.41;101153.41;5093689;27;46453;-78
2022/07/03 07:48:31;;;;;;;;;2.00;2.00;;;;;35.55;23.32;101134.28;5094081;27;45640;-78
2022/07/03 07:50:56;;;;;;;;;1.00;1.00;;;;;35.88;23.20;101138.69;5094235;27;45395;-79
2022/07/03 07:53:21;;;;;;;;;1.25;1.00;;;;;36.26;22.69;101150.63;5093824;27;45507;-79
2022/07/03 07:55:46;;;;;;;;;1.00;1.00;;;;;36.49;22.99;101157.97;5094691;27;45438;-79
2022/07/03 07:58:12;;;;;;;;;2.00;0.50;;;;;36.69;22.43;101157.41;5094097;27;45590;-78
2022/07/03 08:05:35;;;;;;;;;1.00;1.00;;;;;36.81;22.48;101155.91;5094364;27;46311;-79
2022/07/03 08:06:06;;;;;;;;;1.50;1.00;;;;;36.62;22.39;101149.91;5093880;27;45585;-78
2022/07/03 08:08:32;;;;;;;;;1.00;0.00;;;;;36.71;22.24;101166.31;5092231;27;45471;-79
2022/07/03 08:10:57;;;;;;;;;1.25;0.75;;;;;36.81;22.19;101165.03;5094506;27;45481;-79
2022/07/03 08:13:23;;;;;;;;;0.75;0.75;;;;;36.98;21.76;101154.66;5091709;27;45516;-79
2022/07/03 08:15:48;;;;;;;;;2.75;1.75;;;;;37.21;21.75;101159.19;5094240;27;45453;-78
2022/07/03 08:18:14;;;;;;;;;1.75;0.00;;;;;37.14;21.49;101152.75;5094165;27;45473;-79
2022/07/03 08:20:39;;;;;;;;;1.00;1.00;;;;;36.89;21.81;101147.56;5092310;27;47772;-78
2022/07/03 08:23:05;;;;;;;;;1.00;1.00;;;;;36.36;22.72;101149.50;5093611;27;45355;-79
2022/07/03 08:25:31;;;;;;;;;1.75;1.00;;;;;36.30;22.60;101158.50;5092513;27;45964;-78
2022/07/03 08:27:58;;;;;;;;;1.75;1.75;;;;;36.44;23.26;101158.53;5094331;27;45510;-78
2022/07/03 08:30:23;;;;;;;;;1.00;1.00;;;;;36.52;23.39;101160.34;5093555;27;46096;-79
2022/07/03 08:32:52;;;;;;;;;0.50;0.00;;;;;36.40;23.09;101156.34;5092521;27;45601;-77
2022/07/03 08:35:18;;;;;;;;;0.00;0.00;;;;;36.66;22.37;101153.13;5093116;27;45351;-79
2022/07/03 08:37:46;;;;;;;;;4.00;1.00;;;;;36.74;22.72;101154.94;5094131;27;45299;-78
2022/07/03 08:40:16;;;;;;;;;0.00;0.00;;;;;36.64;22.24;101145.06;5094791;27;45588;-78
2022/07/03 08:42:46;;;;;;;;;0.00;0.00;;;;;36.85;22.09;101146.22;5099863;27;45486;-79
2022/07/03 08:45:19;;;;;;;;;0.00;0.00;;;;;36.64;22.43;101147.81;5113078;27;45429;-78
2022/07/03 08:47:46;;;;;;;;;0.00;0.00;;;;;36.34;22.67;101152.44;5102343;27;45323;-78
2022/07/03 08:50:13;;;;;;;;;0.00;0.00;;;;;36.55;21.87;101148.06;5101353;27;46127;-79
2022/07/03 08:52:39;;;;;;;;;0.25;0.25;;;;;36.75;22.17;101159.44;5099892;27;45481;-80
2022/07/03 08:55:05;;;;;;;;;0.00;0.00;;;;;36.87;22.46;101152.41;5098172;27;45518;-79
2022/07/03 08:57:35;;;;;;;;;1.75;1.00;;;;;36.95;21.77;101149.53;5097445;27;45559;-79
2022/07/03 09:00:04;;;;;;;;;0.00;0.00;;;;;36.94;21.24;101152.47;5097736;27;46515;-78
2022/07/03 09:02:32;;;;;;;;;1.00;1.00;;;;;37.10;21.42;101149.53;5091983;27;45485;-79
2022/07/03 09:04:58;;;;;;;;;0.00;0.00;;;;;37.08;22.35;101142.50;5074993;28;45498;-80
2022/07/03 09:07:26;;;;;;;;;0.00;0.00;;;;;37.38;21.31;101148.81;5076773;27;45402;-78
2022/07/03 09:09:52;;;;;;;;;0.00;0.00;;;;;37.53;21.41;101140.53;5077044;28;45989;-79
2022/07/03 09:12:18;;;;;;;;;0.00;0.00;;;;;37.51;21.69;101149.00;5076570;27;45448;-78
2022/07/03 09:14:43;;;;;;;;;1.00;0.00;;;;;37.52;21.63;101160.88;5076655;27;45454;-79
2022/07/03 09:17:09;;;;;;;;;0.00;0.00;;;;;37.27;21.18;101141.91;5077630;27;45324;-79
2022/07/03 09:19:48;;;;;;;;;1.00;0.00;;;;;37.05;22.20;101145.63;5078655;27;45493;-80
2022/07/03 09:22:40;;;;;;;;;0.25;0.25;;;;;37.27;22.24;101143.84;5076164;27;45348;-79
2022/07/03 09:25:09;;;;;;;;;0.00;0.00;;;;;37.44;22.30;101152.72;5074884;27;45438;-79
2022/07/03 09:27:49;;;;;;;;;1.00;1.00;;;;;37.55;21.96;101154.97;5076433;27;45465;-79
2022/07/03 09:30:15;;;;;;;;;0.75;0.00;;;;;37.63;21.29;101138.31;5076055;27;45525;-77
2022/07/03 09:32:41;;;;;;;;;0.50;0.25;;;;;37.33;21.51;101138.38;5076557;27;45470;-79
2022/07/03 09:35:14;;;;;;;;;0.25;0.25;;;;;37.28;21.58;101148.31;5075999;27;45395;-79
2022/07/03 09:37:48;;;;;;;;;1.25;1.00;;;;;37.23;21.62;101140.63;5076437;27;45663;-78
2022/07/03 09:40:14;;;;;;;;;0.00;0.00;;;;;36.72;21.99;101137.75;5075954;27;46220;-77
2022/07/03 09:42:39;;;;;;;;;0.00;0.00;;;;;36.75;22.38;101142.91;5076537;27;45495;-80
2022/07/03 09:45:05;;;;;;;;;0.00;0.00;;;;;36.61;22.06;101141.84;5078524;27;45826;-80
2022/07/03 09:47:31;;;;;;;;;0.75;0.75;;;;;36.54;22.68;101147.22;5092238;27;45398;-78
2022/07/03 09:50:04;;;;;;;;;0.00;0.00;;;;;36.68;22.54;101133.69;5095257;27;46390;-79
2022/07/03 09:52:44;;;;;;;;;1.00;1.00;;;;;37.03;21.80;101144.97;5081191;27;45661;-78
2022/07/03 09:55:09;;;;;;;;;0.25;0.25;;;;;37.07;22.40;101149.91;5076085;27;45332;-78
2022/07/03 09:57:39;;;;;;;;;1.00;1.00;;;;;37.23;21.49;101146.13;5075286;28;45344;-78
2022/07/03 10:00:22;;;;;;;;;0.25;0.00;;;;;36.94;22.28;101152.47;5075478;27;46651;-78
2022/07/03 10:02:52;;;;;;;;;0.00;0.00;;;;;37.21;22.89;101153.69;5075325;28;45485;-79
2022/07/03 10:05:18;;;;;;;;;0.00;0.00;;;;;37.47;21.04;101146.81;5074588;28;45325;-79
2022/07/03 10:07:54;;;;;;;;;1.00;0.00;;;;;37.80;20.41;101151.88;5076271;27;45427;-78
2022/07/03 10:10:21;;;;;;;;;1.00;1.00;;;;;37.84;20.67;101155.94;5076535;27;46195;-78
2022/07/03 10:12:49;;;;;;;;;1.00;0.00;;;;;37.31;21.30;101143.25;5075924;28;45352;-80
2022/07/03 10:15:15;;;;;;;;;0.00;0.00;;;;;36.94;21.54;101158.88;5076149;27;45462;-78
2022/07/03 10:17:43;;;;;;;;;0.50;0.50;;;;;36.10;22.79;101156.22;5085165;27;45555;-78
2022/07/03 10:20:14;;;;;;;;;0.25;0.25;;;;;35.61;22.85;101157.44;5095745;27;45499;-79
2022/07/03 10:22:42;;;;;;;;;1.25;0.00;;;;;35.07;23.37;101160.94;5096667;27;45516;-79
2022/07/03 10:25:09;;;;;;;;;0.25;0.25;;;;;34.56;23.81;101168.59;5096806;27;45395;-80
2022/07/03 10:27:36;;;;;;;;;0.75;0.00;;;;;34.05;24.38;101161.41;5096023;27;45657;-79
2022/07/03 10:30:01;;;;;;;;;1.00;1.00;;;;;34.20;24.44;101158.00;5095858;27;45419;-79
2022/07/03 10:32:28;;;;;;;;;1.00;1.00;;;;;34.02;25.20;101163.66;5095860;27;45460;-79
2022/07/03 10:34:53;;;;;;;;;0.50;0.50;;;;;33.73;25.16;101162.25;5094619;27;45496;-79
2022/07/03 10:37:21;;;;;;;;;0.00;0.00;;;;;33.99;25.61;101156.59;5097512;27;45517;-78
2022/07/03 10:44:45;;;;;;;;;0.75;0.75;;;;;34.74;24.99;101160.16;5098121;27;45369;-78
2022/07/03 10:45:36;;;;;;;;;0.00;0.00;;;;;35.14;23.77;101128.97;5099185;27;45306;-78
2022/07/03 10:48:01;;;;;;;;;2.00;2.00;;;;;34.90;24.01;101156.56;5096059;27;45349;-78
2022/07/03 10:50:26;;;;;;;;;0.00;0.00;;;;;34.91;24.18;101158.25;5095133;27;45637;-79
2022/07/03 10:52:52;;;;;;;;;1.00;1.00;;;;;35.21;24.57;101165.69;5095387;27;45458;-78
2022/07/03 10:55:18;;;;;;;;;0.50;0.50;;;;;35.61;23.32;101160.19;5095454;27;45370;-78
2022/07/03 10:58:07;;;;;;;;;1.25;1.25;;;;;35.89;23.67;101166.00;5095429;27;45443;-79
2022/07/03 11:00:54;;;;;;;;;2.00;2.00;;;;;36.37;22.92;101156.72;5095199;27;47305;-78
2022/07/03 11:03:51;;;;;;;;;0.75;0.75;;;;;36.61;22.39;101159.19;5094580;27;45459;-79
2022/07/03 11:06:16;;;;;;;;;1.00;1.00;;;;;36.23;23.44;101156.47;5095692;27;45340;-78
2022/07/03 11:09:17;;;;;;;;;2.00;2.00;;;;;35.81;22.85;101157.81;5094938;27;45398;-79
2022/07/03 11:11:55;;;;;;;;;2.00;1.75;;;;;35.66;23.22;101170.63;5072839;28;46479;-78
2022/07/03 11:14:29;;;;;;;;;1.50;1.50;;;;;35.47;22.95;101167.31;5072882;28;45437;-79
2022/07/03 11:17:19;;;;;;;;;2.50;2.50;;;;;35.47;23.35;101164.56;5075215;28;45404;-77
2022/07/03 11:20:23;;;;;;;;;1.00;1.00;;;;;34.97;23.67;101163.91;5073807;28;45349;-80
2022/07/03 11:23:11;;;;;;;;;1.00;1.00;;;;;35.33;24.44;101160.69;5073457;28;46401;-80
2022/07/03 11:25:41;;;;;;;;;4.50;1.50;;;;;35.55;24.26;101153.50;5073687;28;45566;-78
2022/07/03 11:28:06;;;;;;;;;4.00;2.75;;;;;35.70;23.65;101144.50;5072992;28;45500;-79
2022/07/03 11:30:32;;;;;;;;;1.00;1.00;;;;;35.60;23.59;101141.13;5072375;28;45405;-78
2022/07/03 11:33:00;;;;;;;;;1.50;1.50;;;;;35.33;23.48;101159.81;5072179;28;46492;-80
2022/07/03 11:35:47;;;;;;;;;1.00;1.00;;;;;34.68;24.58;101165.31;5073667;28;45385;-80
2022/07/03 11:38:15;;;;;;;;;1.00;1.00;;;;;34.12;24.68;101156.13;5075379;28;45538;-79
2022/07/03 11:40:43;;;;;;;;;1.00;1.00;;;;;33.81;25.50;101159.50;5073774;28;45681;-79
2022/07/03 11:43:09;;;;;;;;;0.75;0.75;;;;;33.74;25.98;101164.81;5072004;28;46300;-78